Time;durP1;ratioP1;P1;durP2;ratioP2;P2;SDS_P1;SDS_P2;PMS_P1;PMS_P2;Temp;Humidity;BMP_temperature;BMP_pressure;BME280_temperature;BME280_humidity;BME280_pressure;Samples;Min_cycle;Max_cycle;Signal;HPM_P1;HPM_P2
2022/10/28 00:01:13;;;;;;;18.32;10.60;;;;;;;12.04;100.00;101231.75;1738064;82;21038;-69
2022/10/28 00:03:47;;;;;;;17.80;11.12;;;;;;;12.11;100.00;101226.72;1737860;82;21031;-66
2022/10/28 00:06:19;;;;;;;14.58;9.83;;;;;;;12.13;100.00;101230.19;1737902;82;21132;-66
2022/10/28 00:08:48;;;;;;;17.42;11.05;;;;;;;12.07;100.00;101233.84;1737816;82;21547;-68
2022/10/28 00:11:18;;;;;;;18.02;11.25;;;;;;;12.05;100.00;101231.69;1738063;82;21798;-67
2022/10/28 00:13:45;;;;;;;17.82;11.55;;;;;;;12.07;100.00;101231.20;1735372;82;21054;-65
2022/10/28 00:16:15;;;;;;;19.12;11.18;;;;;;;12.18;100.00;101228.30;1735723;82;21073;-66
2022/10/28 00:18:43;;;;;;;18.27;10.60;;;;;;;11.94;100.00;101231.98;1735495;82;21116;-66
2022/10/28 00:21:16;;;;;;;23.90;11.40;;;;;;;11.90;100.00;101234.73;1735487;82;21033;-66
2022/10/28 00:23:43;;;;;;;18.27;11.12;;;;;;;12.03;100.00;101229.58;1743278;80;21126;-66
2022/10/28 00:26:15;;;;;;;22.42;11.22;;;;;;;11.96;100.00;101235.45;1751612;81;20993;-66
2022/10/28 00:28:55;;;;;;;21.12;11.80;;;;;;;12.13;100.00;101239.44;1751762;81;22140;-64
2022/10/28 00:31:24;;;;;;;25.68;11.28;;;;;;;12.04;100.00;101243.63;1751298;81;21060;-66
2022/10/28 00:33:51;;;;;;;20.30;10.58;;;;;;;12.03;100.00;101237.92;1781448;80;21039;-65
2022/10/28 00:36:21;;;;;;;18.80;10.75;;;;;;;12.08;100.00;101241.34;1782268;80;21309;-66
2022/10/28 00:38:50;;;;;;;16.62;10.90;;;;;;;11.98;100.00;101243.31;1782702;80;21115;-66
2022/10/28 00:41:27;;;;;;;18.75;10.68;;;;;;;12.07;100.00;101245.72;1782538;80;21024;-66
2022/10/28 00:43:57;;;;;;;21.30;10.78;;;;;;;11.98;100.00;101249.91;1780823;80;21009;-66
2022/10/28 00:46:35;;;;;;;16.50;10.30;;;;;;;12.08;100.00;101251.90;1782766;79;21009;-68
2022/10/28 00:49:07;;;;;;;19.30;11.20;;;;;;;12.06;100.00;101249.75;1782111;80;21235;-65
2022/10/28 00:51:34;;;;;;;18.95;10.60;;;;;;;12.14;100.00;101245.12;1780095;80;21060;-66
2022/10/28 00:54:01;;;;;;;21.37;10.30;;;;;;;12.08;100.00;101247.48;1782770;80;21064;-66
2022/10/28 00:56:31;;;;;;;21.42;10.25;;;;;;;12.08;100.00;101246.62;1782612;80;21064;-65
2022/10/28 00:58:59;;;;;;;16.42;10.50;;;;;;;12.05;100.00;101258.09;1782952;80;21048;-66
2022/10/28 01:01:26;;;;;;;19.07;10.48;;;;;;;12.08;100.00;101247.94;1782641;80;21112;-66
2022/10/28 01:03:54;;;;;;;19.67;10.95;;;;;;;12.02;100.00;101248.08;1782558;80;21024;-66
2022/10/28 01:06:22;;;;;;;16.80;10.30;;;;;;;12.06;100.00;101248.42;1752731;80;21111;-67
2022/10/28 01:08:48;;;;;;;20.57;11.22;;;;;;;12.00;100.00;101253.84;1782833;80;21093;-66
2022/10/28 01:11:42;;;;;;;14.40;9.50;;;;;;;12.03;100.00;101256.41;1782880;80;21658;-66
2022/10/28 01:14:48;;;;;;;24.37;9.78;;;;;;;12.01;100.00;101252.92;1782766;80;22240;-66
2022/10/28 01:18:02;;;;;;;16.35;9.88;;;;;;;11.95;100.00;101253.50;1782468;80;21013;-66
2022/10/28 01:21:03;;;;;;;19.25;10.40;;;;;;;11.85;100.00;101254.62;1783009;80;21021;-65
2022/10/28 01:23:57;;;;;;;16.90;9.65;;;;;;;11.90;100.00;101258.03;1778599;79;21120;-66
2022/10/28 01:26:53;;;;;;;16.87;9.35;;;;;;;11.90;100.00;101256.72;1748618;81;21017;-66
2022/10/28 01:29:52;;;;;;;21.62;10.70;;;;;;;12.01;100.00;101258.20;1737027;82;21818;-65
2022/10/28 01:32:36;;;;;;;23.70;11.08;;;;;;;11.93;100.00;101248.71;1765464;81;21142;-66
2022/10/28 01:35:20;;;;;;;17.77;9.98;;;;;;;11.90;100.00;101250.58;1766096;81;21072;-66
2022/10/28 01:37:58;;;;;;;15.80;10.20;;;;;;;11.88;100.00;101251.92;1766087;81;21068;-67
2022/10/28 01:40:34;;;;;;;17.45;10.48;;;;;;;11.87;100.00;101254.16;1765921;81;21073;-66
2022/10/28 01:43:11;;;;;;;17.45;9.98;;;;;;;11.71;100.00;101254.05;1766067;81;21072;-66
2022/10/28 01:45:58;;;;;;;18.95;10.90;;;;;;;11.78;100.00;101249.50;1765941;81;20990;-68
2022/10/28 01:48:36;;;;;;;19.42;9.83;;;;;;;11.81;100.00;101245.03;1765644;81;21109;-67
2022/10/28 01:51:09;;;;;;;17.57;10.13;;;;;;;11.83;100.00;101249.83;1765244;81;21029;-66
2022/10/28 01:53:38;;;;;;;15.98;9.40;;;;;;;11.94;100.00;101251.78;1766427;81;21014;-67
2022/10/28 01:56:09;;;;;;;16.90;10.32;;;;;;;12.01;100.00;101250.28;1765967;81;21216;-65
2022/10/28 01:58:35;;;;;;;14.68;9.40;;;;;;;11.92;100.00;101254.91;1765955;81;21577;-67
2022/10/28 02:01:06;;;;;;;15.98;9.40;;;;;;;11.76;100.00;101261.44;1765623;81;21108;-66
2022/10/28 02:03:33;;;;;;;18.07;10.48;;;;;;;11.85;100.00;101252.44;1742186;81;21025;-66
2022/10/28 02:06:05;;;;;;;20.72;10.82;;;;;;;11.90;100.00;101254.53;1765474;81;21049;-67
2022/10/28 02:09:03;;;;;;;19.23;10.93;;;;;;;11.82;100.00;101254.67;1765731;81;21863;-66
2022/10/28 02:11:42;;;;;;;13.50;9.28;;;;;;;11.84;100.00;101251.55;1765545;81;21549;-66
2022/10/28 02:14:53;;;;;;;15.00;9.45;;;;;;;11.92;100.00;101251.41;1765939;81;21081;-65
2022/10/28 02:17:47;;;;;;;21.05;10.20;;;;;;;11.78;100.00;101246.44;1765932;81;21564;-66
2022/10/28 02:20:40;;;;;;;17.25;10.20;;;;;;;11.73;100.00;101251.83;1766106;81;21065;-67
2022/10/28 02:23:41;;;;;;;18.80;10.65;;;;;;;11.81;100.00;101250.31;1765869;81;21194;-66
2022/10/28 02:26:20;;;;;;;;;;;;;;;11.82;100.00;101243.25;1768645;81;22096;-66
2022/10/28 02:29:15;;;;;;;17.55;9.55;;;;;;;11.82;100.00;101245.44;1765902;81;20514;-66
2022/10/28 02:31:47;;;;;;;17.62;11.60;;;;;;;11.77;100.00;101242.05;1765695;81;21056;-69
2022/10/28 02:34:19;;;;;;;20.40;10.70;;;;;;;11.68;100.00;101243.13;1765932;81;21057;-66
2022/10/28 02:36:48;;;;;;;16.90;10.10;;;;;;;11.65;100.00;101251.59;1766150;81;21142;-66
2022/10/28 02:39:17;;;;;;;19.30;10.90;;;;;;;11.72;100.00;101251.85;1765914;81;21033;-67
2022/10/28 02:41:56;;;;;;;24.35;11.55;;;;;;;11.77;100.00;101256.56;1766059;81;21616;-68
2022/10/28 02:44:27;;;;;;;15.28;9.18;;;;;;;11.85;100.00;101251.98;1765082;81;21078;-65
2022/10/28 02:46:58;;;;;;;13.22;9.25;;;;;;;11.83;100.00;101257.74;1764317;81;21042;-66
2022/10/28 02:49:24;;;;;;;13.35;8.80;;;;;;;11.81;100.00;101254.27;1764450;81;21303;-66
2022/10/28 02:51:57;;;;;;;16.50;8.75;;;;;;;11.67;100.00;101261.66;1764575;81;21089;-66
2022/10/28 02:54:38;;;;;;;20.62;10.98;;;;;;;11.68;100.00;101259.42;1764395;81;21530;-67
2022/10/28 02:57:08;;;;;;;;;;;;;;;11.68;100.00;101253.68;1766941;81;20995;-66
2022/10/28 02:59:35;;;;;;;20.10;11.38;;;;;;;11.76;100.00;101256.16;1764386;81;20185;-66
2022/10/28 03:02:02;;;;;;;21.37;10.60;;;;;;;11.63;100.00;101258.66;1765631;81;21226;-66
2022/10/28 03:04:28;;;;;;;20.08;11.30;;;;;;;11.57;100.00;101260.11;1765773;81;21124;-66
2022/10/28 03:06:55;;;;;;;25.90;12.25;;;;;;;11.50;100.00;101265.55;1765668;81;21065;-66
2022/10/28 03:09:21;;;;;;;17.80;11.45;;;;;;;11.53;100.00;101257.56;1766314;81;21009;-65
2022/10/28 03:11:49;;;;;;;21.35;12.03;;;;;;;11.57;100.00;101249.56;1766027;81;21100;-66
2022/10/28 03:14:16;;;;;;;20.37;12.00;;;;;;;11.58;100.00;101252.63;1765962;81;21108;-65
2022/10/28 03:16:43;;;;;;;19.48;11.05;;;;;;;11.62;100.00;101250.31;1765951;81;22233;-66
2022/10/28 03:19:10;;;;;;;20.92;10.93;;;;;;;11.67;100.00;101247.14;1765947;81;21084;-66
2022/10/28 03:21:37;;;;;;;14.13;9.25;;;;;;;11.79;100.00;101247.30;1766111;81;21034;-66
2022/10/28 03:24:04;;;;;;;16.67;10.88;;;;;;;11.60;100.00;101252.15;1766057;79;21006;-67
2022/10/28 03:26:31;;;;;;;14.15;9.30;;;;;;;11.67;100.00;101245.83;1766131;81;21103;-66
2022/10/28 03:28:58;;;;;;;15.75;9.68;;;;;;;11.61;100.00;101258.69;1765840;81;21006;-67
2022/10/28 03:31:24;;;;;;;14.50;9.13;;;;;;;11.51;100.00;101250.59;1765887;81;21076;-66
2022/10/28 03:33:50;;;;;;;13.15;8.80;;;;;;;11.61;100.00;101256.51;1765974;81;21065;-66
2022/10/28 03:36:17;;;;;;;13.13;9.13;;;;;;;11.62;100.00;101255.59;1765977;81;20962;-66
2022/10/28 03:38:43;;;;;;;14.05;8.73;;;;;;;11.58;100.00;101251.31;1765990;81;21197;-66
2022/10/28 03:41:11;;;;;;;24.52;11.93;;;;;;;11.66;100.00;101251.52;1765786;81;21541;-65
2022/10/28 03:43:38;;;;;;;16.60;10.75;;;;;;;11.62;100.00;101249.00;1765612;81;21035;-66
2022/10/28 03:46:05;;;;;;;22.02;12.15;;;;;;;11.54;100.00;101254.00;1764305;81;21055;-65
2022/10/28 03:48:32;;;;;;;19.65;12.03;;;;;;;11.63;100.00;101247.65;1764096;81;21046;-67
2022/10/28 03:50:59;;;;;;;17.30;11.18;;;;;;;11.63;100.00;101256.03;1764281;81;21069;-65
2022/10/28 03:53:26;;;;;;;19.95;11.83;;;;;;;11.59;100.00;101251.26;1764157;81;21078;-66
2022/10/28 03:55:58;;;;;;;25.15;11.68;;;;;;;11.62;100.00;101247.25;1764406;81;21179;-66
2022/10/28 03:58:25;;;;;;;18.62;11.85;;;;;;;11.52;100.00;101243.94;1764237;81;21119;-66
2022/10/28 04:00:52;;;;;;;17.82;11.50;;;;;;;11.60;100.00;101239.82;1764293;81;22088;-67
2022/10/28 04:03:19;;;;;;;23.70;12.58;;;;;;;11.61;100.00;101242.00;1764338;81;21847;-66
2022/10/28 04:05:49;;;;;;;18.52;10.95;;;;;;;11.54;100.00;101235.53;1764164;81;21066;-66
2022/10/28 04:08:17;;;;;;;;;;;;;;;11.51;100.00;101235.62;1766885;81;21582;-67
2022/10/28 04:10:46;;;;;;;18.65;12.80;;;;;;;11.60;100.00;101244.23;1764485;81;20177;-66
2022/10/28 04:13:12;;;;;;;15.88;10.18;;;;;;;11.52;100.00;101236.48;1764699;81;21077;-67
2022/10/28 04:15:39;;;;;;;17.10;9.98;;;;;;;11.50;100.00;101227.30;1764393;81;21632;-66
2022/10/28 04:18:07;;;;;;;19.60;11.83;;;;;;;11.53;100.00;101240.87;1764527;81;21030;-67
2022/10/28 04:20:34;;;;;;;16.87;10.80;;;;;;;11.49;100.00;101244.02;1764304;81;21664;-66
2022/10/28 04:23:01;;;;;;;21.23;13.05;;;;;;;11.55;100.00;101242.56;1764377;81;21023;-66
2022/10/28 04:25:28;;;;;;;20.55;12.88;;;;;;;11.64;100.00;101246.77;1740543;81;21609;-67
2022/10/28 04:27:54;;;;;;;19.00;11.33;;;;;;;11.53;100.00;101252.28;1764169;80;21885;-65
2022/10/28 04:30:22;;;;;;;19.20;11.57;;;;;;;11.54;100.00;101248.73;1764526;81;21011;-67
2022/10/28 04:32:48;;;;;;;15.53;10.58;;;;;;;11.61;100.00;101252.09;1764370;81;21038;-66
2022/10/28 04:35:15;;;;;;;19.35;11.63;;;;;;;11.61;100.00;101251.23;1764231;81;21090;-67
2022/10/28 04:37:42;;;;;;;21.35;11.88;;;;;;;11.63;100.00;101258.66;1764312;81;21561;-66
2022/10/28 04:40:10;;;;;;;19.75;12.07;;;;;;;11.61;100.00;101256.51;1764642;81;21221;-66
2022/10/28 04:42:38;;;;;;;21.68;11.57;;;;;;;11.66;100.00;101250.66;1764049;81;21376;-66
2022/10/28 04:45:06;;;;;;;20.80;11.97;;;;;;;11.50;100.00;101252.36;1765369;81;21041;-67
2022/10/28 04:47:33;;;;;;;22.27;11.83;;;;;;;11.59;100.00;101251.26;1765839;81;21088;-68
2022/10/28 04:50:00;;;;;;;16.20;11.03;;;;;;;11.54;100.00;101249.19;1766475;81;21037;-67
2022/10/28 04:52:26;;;;;;;21.97;11.45;;;;;;;11.46;100.00;101246.73;1766224;81;21255;-65
2022/10/28 04:54:54;;;;;;;21.05;11.85;;;;;;;11.57;100.00;101248.24;1766179;81;21030;-66
2022/10/28 04:57:21;;;;;;;25.43;12.28;;;;;;;11.55;100.00;101245.20;1766025;81;21049;-66
2022/10/28 04:59:48;;;;;;;25.05;11.90;;;;;;;11.44;100.00;101249.86;1765942;81;21548;-68
2022/10/28 05:02:14;;;;;;;16.82;10.72;;;;;;;11.49;100.00;101246.66;1765903;81;21618;-67
2022/10/28 05:04:41;;;;;;;18.40;11.28;;;;;;;11.51;100.00;101248.81;1766125;81;21623;-66
2022/10/28 05:07:08;;;;;;;19.48;9.90;;;;;;;11.54;100.00;101246.55;1765610;81;21529;-67
2022/10/28 05:09:34;;;;;;;20.02;10.93;;;;;;;11.51;100.00;101247.48;1766198;81;21041;-67
2022/10/28 05:12:03;;;;;;;14.60;10.53;;;;;;;11.58;100.00;101253.95;1765718;81;21044;-67
2022/10/28 05:14:30;;;;;;;25.88;11.43;;;;;;;11.60;100.00;101249.52;1765796;81;21092;-67
2022/10/28 05:16:57;;;;;;;23.22;12.20;;;;;;;11.52;100.00;101259.77;1766091;81;21245;-67
2022/10/28 05:20:13;;;;;;;28.00;12.45;;;;;;;10.84;100.00;101263.00;1814624;79;28047;-67
2022/10/28 05:22:52;;;;;;;19.30;12.35;;;;;;;11.08;100.00;101261.61;1787607;80;21570;-66
2022/10/28 05:25:18;;;;;;;17.40;10.70;;;;;;;11.16;100.00;101257.94;1787560;80;21239;-66
2022/10/28 05:27:45;;;;;;;16.75;10.20;;;;;;;11.24;100.00;101262.61;1787687;80;20977;-66
2022/10/28 05:30:12;;;;;;;15.38;9.10;;;;;;;11.26;100.00;101266.09;1787451;80;21080;-66
2022/10/28 05:32:39;;;;;;;19.12;9.98;;;;;;;11.11;100.00;101272.11;1787637;80;21044;-66
2022/10/28 05:35:06;;;;;;;12.95;9.55;;;;;;;11.22;100.00;101263.09;1787280;80;20998;-66
2022/10/28 05:37:33;;;;;;;19.35;10.93;;;;;;;11.22;100.00;101268.37;1787243;80;21606;-67
2022/10/28 05:40:00;;;;;;;15.60;9.83;;;;;;;11.12;100.00;101268.56;1787447;80;21044;-68
2022/10/28 05:42:27;;;;;;;15.03;10.13;;;;;;;11.21;100.00;101269.28;1787500;80;21550;-66
2022/10/28 05:44:53;;;;;;;30.15;12.85;;;;;;;11.31;100.00;101268.17;1767198;80;21610;-66
2022/10/28 05:47:20;;;;;;;21.40;12.82;;;;;;;11.29;100.00;101273.92;1756285;81;21012;-66
2022/10/28 05:49:47;;;;;;;26.27;13.50;;;;;;;11.34;100.00;101270.73;1756395;81;21232;-65
2022/10/28 05:52:14;;;;;;;28.50;14.43;;;;;;;11.28;100.00;101265.16;1756172;81;21335;-65
2022/10/28 05:54:41;;;;;;;32.13;13.62;;;;;;;11.25;100.00;101266.97;1756265;81;21042;-66
2022/10/28 05:57:07;;;;;;;44.50;14.53;;;;;;;11.30;100.00;101267.77;1756547;81;21059;-66
2022/10/28 05:59:34;;;;;;;28.83;13.88;;;;;;;11.36;100.00;101272.88;1756390;81;21098;-66
2022/10/28 06:02:01;;;;;;;32.58;15.68;;;;;;;11.42;100.00;101271.89;1754137;81;21246;-67
2022/10/28 06:04:29;;;;;;;27.17;15.50;;;;;;;11.45;100.00;101272.67;1726105;83;21551;-66
2022/10/28 06:06:56;;;;;;;27.48;16.60;;;;;;;11.38;100.00;101271.08;1726048;82;21618;-66
2022/10/28 06:09:25;;;;;;;26.75;14.68;;;;;;;11.41;100.00;101282.91;1726389;82;21642;-67
2022/10/28 06:11:51;;;;;;;25.88;14.38;;;;;;;11.45;100.00;101280.59;1707925;83;21042;-67
2022/10/28 06:14:18;;;;;;;23.95;12.73;;;;;;;11.50;100.00;101288.40;1726511;83;21102;-68
2022/10/28 06:16:45;;;;;;;25.68;13.15;;;;;;;11.51;100.00;101288.38;1726225;83;21038;-67
2022/10/28 06:19:12;;;;;;;29.82;14.45;;;;;;;11.46;100.00;101290.26;1720216;82;21504;-67
2022/10/28 06:21:39;;;;;;;28.35;12.03;;;;;;;11.51;100.00;101292.80;1713794;83;21091;-67
2022/10/28 06:24:07;;;;;;;21.90;12.60;;;;;;;11.48;100.00;101296.38;1714052;83;21067;-66
2022/10/28 06:26:34;;;;;;;17.25;11.25;;;;;;;11.57;100.00;101296.59;1713543;82;21102;-67
2022/10/28 06:29:00;;;;;;;23.02;13.05;;;;;;;11.59;100.00;101297.89;1713496;83;21051;-67
2022/10/28 06:31:27;;;;;;;22.27;12.43;;;;;;;11.61;100.00;101301.36;1712998;83;21054;-66
2022/10/28 06:33:53;;;;;;;25.70;13.78;;;;;;;11.64;100.00;101298.64;1713357;83;21048;-67
2022/10/28 06:36:20;;;;;;;26.75;16.10;;;;;;;11.63;100.00;101302.20;1712971;83;21543;-66
2022/10/28 06:38:47;;;;;;;26.37;15.58;;;;;;;11.74;100.00;101304.14;1713445;83;21766;-66
2022/10/28 06:41:14;;;;;;;29.67;15.18;;;;;;;11.80;100.00;101301.37;1712929;83;21066;-67
2022/10/28 06:43:40;;;;;;;23.30;14.20;;;;;;;11.89;100.00;101295.91;1716119;82;21618;-67
2022/10/28 06:46:08;;;;;;;29.10;14.98;;;;;;;12.01;100.00;101300.45;1731785;82;21066;-68
2022/10/28 06:48:36;;;;;;;28.02;14.93;;;;;;;12.07;100.00;101297.67;1732071;82;21102;-68
2022/10/28 06:51:03;;;;;;;28.92;15.28;;;;;;;12.11;100.00;101289.63;1732117;82;21258;-69
2022/10/28 06:53:30;;;;;;;32.53;14.40;;;;;;;12.23;100.00;101299.02;1731933;82;21053;-69
2022/10/28 06:55:57;;;;;;;33.28;16.40;;;;;;;12.33;100.00;101294.36;1732266;82;21059;-67
2022/10/28 06:58:25;;;;;;;28.35;16.00;;;;;;;12.31;100.00;101294.42;1687163;85;21093;-67
2022/10/28 07:00:51;;;;;;;24.05;14.35;;;;;;;12.31;100.00;101289.14;1732386;82;21018;-68
2022/10/28 07:03:18;;;;;;;23.52;13.93;;;;;;;12.33;100.00;101288.66;1731956;82;22097;-66
2022/10/28 07:05:45;;;;;;;27.20;12.95;;;;;;;12.32;100.00;101282.94;1687171;85;21073;-67
2022/10/28 07:08:13;;;;;;;23.70;12.93;;;;;;;12.32;100.00;101280.30;1732284;82;21625;-68
2022/10/28 07:10:40;;;;;;;21.10;12.98;;;;;;;12.31;100.00;101281.22;1687309;85;21014;-67
2022/10/28 07:13:07;;;;;;;20.95;12.70;;;;;;;12.36;100.00;101279.31;1731855;82;21070;-67
2022/10/28 07:15:33;;;;;;;18.48;11.88;;;;;;;12.50;100.00;101287.34;1732072;82;21555;-67
2022/10/28 07:18:01;;;;;;;20.85;13.10;;;;;;;12.62;100.00;101277.75;1687355;85;21641;-67
2022/10/28 07:20:30;;;;;;;21.37;11.63;;;;;;;12.72;100.00;101280.57;1748305;82;21109;-68
2022/10/28 07:23:01;;;;;;;25.45;14.25;;;;;;;12.77;100.00;101277.34;1750808;82;21518;-68
2022/10/28 07:25:28;;;;;;;21.68;12.35;;;;;;;12.85;100.00;101277.58;1751130;80;21053;-68
2022/10/28 07:27:59;;;;;;;21.57;11.88;;;;;;;12.88;100.00;101280.13;1750584;82;21238;-68
2022/10/28 07:30:27;;;;;;;18.00;12.60;;;;;;;12.96;100.00;101271.53;1750667;82;21080;-67
2022/10/28 07:32:54;;;;;;;18.37;11.57;;;;;;;13.03;100.00;101267.80;1714465;83;21130;-67
2022/10/28 07:35:20;;;;;;;22.35;13.53;;;;;;;13.13;100.00;101269.25;1750545;82;21053;-67
2022/10/28 07:37:47;;;;;;;18.82;12.10;;;;;;;13.23;100.00;101265.44;1750698;82;21053;-67
2022/10/28 07:40:13;;;;;;;24.92;12.35;;;;;;;13.33;100.00;101262.08;1750914;82;21222;-67
2022/10/28 07:42:40;;;;;;;22.82;12.23;;;;;;;13.46;100.00;101255.97;1750655;82;21502;-68
2022/10/28 07:45:07;;;;;;;18.67;11.95;;;;;;;13.64;100.00;101256.71;1753001;81;21042;-68
2022/10/28 07:47:34;;;;;;;17.80;11.25;;;;;;;13.69;100.00;101248.62;1753683;81;21602;-68
2022/10/28 07:50:00;;;;;;;23.02;11.35;;;;;;;13.93;100.00;101252.70;1754167;81;21586;-68
2022/10/28 07:52:27;;;;;;;17.42;10.65;;;;;;;14.10;100.00;101260.08;1754010;81;21875;-67
2022/10/28 07:54:54;;;;;;;15.72;9.90;;;;;;;14.35;100.00;101260.97;1753754;81;21829;-67
2022/10/28 07:57:21;;;;;;;14.50;10.85;;;;;;;14.43;100.00;101267.34;1751063;81;21564;-68
2022/10/28 07:59:47;;;;;;;21.90;10.58;;;;;;;14.60;100.00;101266.77;1750983;81;21486;-66
2022/10/28 08:02:20;;;;;;;14.35;9.73;;;;;;;14.67;100.00;101273.12;1750829;80;21847;-67
2022/10/28 08:04:47;;;;;;;13.35;9.45;;;;;;;14.77;100.00;101270.13;1750623;82;21054;-68
2022/10/28 08:07:14;;;;;;;17.92;10.63;;;;;;;14.87;100.00;101271.08;1750930;82;21100;-67
2022/10/28 08:09:40;;;;;;;18.20;9.75;;;;;;;14.97;100.00;101270.73;1750848;81;21133;-68
2022/10/28 08:12:08;;;;;;;17.25;9.55;;;;;;;15.01;100.00;101272.36;1750569;82;21023;-68
2022/10/28 08:14:34;;;;;;;16.93;9.55;;;;;;;15.16;100.00;101265.16;1750906;82;21577;-68
2022/10/28 08:17:01;;;;;;;17.70;9.50;;;;;;;15.18;100.00;101272.58;1750662;82;21257;-67
2022/10/28 08:19:29;;;;;;;22.60;10.58;;;;;;;15.14;100.00;101260.81;1752650;81;21054;-68
2022/10/28 08:21:56;;;;;;;14.80;9.93;;;;;;;15.19;100.00;101260.20;1756155;81;20988;-69
2022/10/28 08:24:24;;;;;;;19.50;9.50;;;;;;;15.23;100.00;101258.70;1756024;81;21078;-68
2022/10/28 08:26:50;;;;;;;13.35;9.18;;;;;;;15.40;100.00;101265.13;1756091;81;21122;-68
2022/10/28 08:29:16;;;;;;;16.57;9.75;;;;;;;15.27;100.00;101262.94;1756331;81;21206;-68
2022/10/28 08:31:43;;;;;;;15.50;9.45;;;;;;;15.38;100.00;101264.33;1756197;81;21045;-68
2022/10/28 08:34:10;;;;;;;16.82;9.08;;;;;;;15.54;100.00;101261.47;1756448;81;21011;-67
2022/10/28 08:36:36;;;;;;;13.03;9.20;;;;;;;15.72;100.00;101263.42;1756075;81;21054;-67
2022/10/28 08:39:03;;;;;;;12.85;8.38;;;;;;;15.92;100.00;101259.09;1756304;81;21050;-69
2022/10/28 08:41:53;;;;;;;15.50;8.53;;;;;;;16.23;98.89;101264.45;1756043;81;21528;-67
2022/10/28 08:44:38;;;;;;;13.50;7.78;;;;;;;16.48;97.34;101263.78;1756267;81;21046;-67
2022/10/28 13:06:19;;;;;;;11.95;4.72;;;;;;;15.50;59.10;101107.20;1798184;78;22873;-94
2022/10/28 13:09:14;;;;;;;9.90;3.85;;;;;;;15.63;58.82;101108.42;1771033;79;21153;-91
2022/10/28 13:12:11;;;;;;;8.98;4.00;;;;;;;15.69;59.08;101105.52;1786212;80;21208;-93
2022/10/28 13:15:13;;;;;;;9.28;3.62;;;;;;;15.79;59.15;101109.14;1790573;80;20914;-92
2022/10/28 13:18:19;;;;;;;11.22;4.10;;;;;;;15.82;58.71;101110.32;1778949;77;21987;-93
2022/10/28 13:20:51;;;;;;;8.50;4.22;;;;;;;15.73;59.37;101111.13;1794753;80;20957;-93
2022/10/28 13:23:35;;;;;;;7.65;3.83;;;;;;;15.77;59.76;101104.36;1753069;78;21060;-91
2022/10/28 13:26:29;;;;;;;7.55;3.70;;;;;;;15.72;59.96;101107.20;1773490;80;21229;-93
2022/10/28 13:28:59;;;;;;;11.18;3.87;;;;;;;15.67;59.99;101106.05;1776297;76;20950;-92
2022/10/28 13:31:41;;;;;;;4.58;3.33;;;;;;;15.67;59.98;101106.05;1782438;80;20992;-92
2022/10/28 13:34:08;;;;;;;7.05;3.45;;;;;;;15.68;60.14;101106.42;1759335;80;21084;-92
2022/10/28 13:36:37;;;;;;;7.20;3.42;;;;;;;15.61;60.52;101102.78;1760531;78;21071;-93
2022/10/28 13:39:07;;;;;;;10.05;3.80;;;;;;;15.59;60.43;101098.85;1736790;81;21545;-92
2022/10/28 13:41:39;;;;;;;9.33;3.60;;;;;;;15.46;61.01;101104.27;1761733;81;21056;-92
2022/10/28 13:44:22;;;;;;;8.88;3.15;;;;;;;15.33;61.49;101099.10;1751122;81;21015;-92
2022/10/28 13:47:04;;;;;;;7.30;3.17;;;;;;;15.23;61.90;101102.13;1703300;82;21546;-93
2022/10/28 13:49:35;;;;;;;7.55;3.20;;;;;;;15.21;62.14;101097.34;1731010;81;20984;-93
2022/10/28 13:52:19;;;;;;;6.00;3.00;;;;;;;15.13;62.55;101091.48;1730589;82;21136;-92
2022/10/28 13:54:53;;;;;;;9.30;3.62;;;;;;;15.10;62.41;101091.61;1731325;81;21025;-92
2022/10/28 13:57:31;;;;;;;7.85;3.80;;;;;;;14.99;62.88;101089.84;1731810;82;21060;-92
2022/10/28 14:00:06;;;;;;;9.75;3.95;;;;;;;14.97;63.40;101094.34;1702271;83;21179;-91
2022/10/28 14:02:40;;;;;;;8.08;4.80;;;;;;;14.94;63.92;101097.13;1727699;81;21067;-92
2022/10/28 14:05:10;;;;;;;10.58;5.45;;;;;;;14.78;64.81;101096.88;1763515;79;21201;-92
2022/10/28 14:08:04;;;;;;;10.60;5.33;;;;;;;14.70;65.17;101097.18;1761991;78;21072;-93
2022/10/28 14:10:35;;;;;;;10.00;4.78;;;;;;;14.62;65.60;101093.95;1733333;80;21147;-93
2022/10/28 14:13:17;;;;;;;10.55;4.58;;;;;;;14.50;66.35;101093.07;1763942;78;20875;-92
2022/10/28 14:15:48;;;;;;;7.30;4.78;;;;;;;14.23;67.45;101094.48;1764411;81;20981;-93
2022/10/28 14:18:22;;;;;;;9.93;4.45;;;;;;;14.12;68.35;101088.72;1734407;81;21073;-93
2022/10/28 14:20:57;;;;;;;13.50;4.37;;;;;;;13.97;69.10;101088.36;1760860;79;20989;-93
2022/10/28 14:23:35;;;;;;;13.22;5.95;;;;;;;13.97;69.59;101088.36;1761093;81;21048;-93
2022/10/28 14:26:04;;;;;;;14.15;6.55;;;;;;;13.89;70.47;101090.41;1759938;79;21095;-94
2022/10/28 14:28:36;;;;;;;17.10;6.05;;;;;;;13.82;70.94;101091.55;1756664;79;20989;-94
2022/10/28 14:31:23;;;;;;;11.35;5.45;;;;;;;13.71;71.55;101089.72;1760951;78;21081;-93
2022/10/28 14:33:59;;;;;;;14.58;6.53;;;;;;;13.55;72.61;101086.30;1759771;79;21310;-93
2022/10/28 14:36:40;;;;;;;21.77;8.53;;;;;;;13.43;73.54;101084.05;1761179;79;21538;-94
2022/10/28 14:39:40;;;;;;;16.20;6.50;;;;;;;13.26;74.90;101082.41;1761229;79;21422;-92
2022/10/28 14:42:32;;;;;;;13.53;6.50;;;;;;;13.26;75.41;101081.09;1760337;81;20989;-92
2022/10/28 14:45:36;;;;;;;14.05;6.20;;;;;;;13.14;76.01;101085.86;1760818;81;22507;-93
2022/10/28 14:48:42;;;;;;;15.75;6.90;;;;;;;12.85;77.42;101085.92;1761061;78;21604;-93
2022/10/28 14:51:15;;;;;;;11.65;7.25;;;;;;;12.84;77.92;101073.59;1678158;81;21093;-92
2022/10/28 14:53:44;;;;;;;13.20;8.10;;;;;;;12.69;78.74;101076.27;1749491;79;21087;-91
2022/10/28 14:56:22;;;;;;;14.73;7.40;;;;;;;12.58;79.50;101083.20;1760050;81;21039;-92
2022/10/28 14:58:50;;;;;;;22.80;9.58;;;;;;;12.48;79.76;101081.75;1759907;79;21237;-91
2022/10/28 15:01:46;;;;;;;50.95;17.20;;;;;;;12.45;80.03;101085.81;1762373;81;21111;-92
2022/10/28 15:04:12;;;;;;;46.48;14.35;;;;;;;12.36;80.71;101082.98;1759848;81;21002;-93
2022/10/28 15:06:44;;;;;;;68.45;20.02;;;;;;;12.34;80.50;101083.02;1762472;79;21541;-92
2022/10/28 15:09:29;;;;;;;89.95;23.90;;;;;;;12.25;81.56;101079.32;1761966;81;21033;-93
2022/10/28 15:12:02;;;;;;;60.58;18.67;;;;;;;12.23;82.25;101080.28;1760574;81;21116;-92
2022/10/28 15:14:33;;;;;;;59.08;16.60;;;;;;;12.07;83.06;101079.38;1730898;81;21508;-94
2022/10/28 15:17:16;;;;;;;65.25;17.45;;;;;;;11.99;83.48;101076.58;1756190;78;28307;-92
2022/10/28 15:19:46;;;;;;;63.87;16.70;;;;;;;11.85;84.08;101076.45;1761452;81;21723;-93
2022/10/28 15:22:22;;;;;;;69.50;16.45;;;;;;;11.79;84.71;101078.39;1722757;82;21959;-92
2022/10/28 15:25:11;;;;;;;77.42;17.17;;;;;;;11.73;85.43;101074.13;1726528;82;21075;-93
2022/10/28 15:27:39;;;;;;;65.42;19.23;;;;;;;11.74;85.87;101083.80;1698478;83;21021;-92
2022/10/28 15:30:22;;;;;;;93.03;43.83;;;;;;;11.71;86.22;101076.83;1698356;83;21112;-93
2022/10/28 15:32:53;;;;;;;100.85;43.42;;;;;;;11.73;86.53;101074.13;1698708;82;21103;-93
2022/10/28 15:35:37;;;;;;;63.92;29.87;;;;;;;11.65;87.65;101069.06;1724803;82;21096;-92
2022/10/28 15:38:31;;;;;;;84.40;36.35;;;;;;;11.68;88.23;101073.39;1724518;82;20994;-93
2022/10/28 15:40:59;;;;;;;69.82;24.27;;;;;;;11.73;88.66;101076.34;1698293;83;21077;-95
2022/10/28 15:43:28;;;;;;;64.95;16.10;;;;;;;11.57;90.58;101072.80;1726087;81;21167;-91
2022/10/28 15:46:11;;;;;;;78.37;17.90;;;;;;;11.67;90.77;101071.67;1667297;85;21034;-92
2022/10/28 15:48:41;;;;;;;39.35;12.70;;;;;;;11.73;91.17;101073.70;1632834;85;21017;-92
2022/10/28 15:51:14;;;;;;;72.58;15.30;;;;;;;11.72;91.92;101067.13;1656552;83;21316;-89